General Aviation Weather

Text Reports

Enter one or more of the following location identifiers separated by a space:

Zip Code, Four-Character ICAO or Three-Character IATA airport codes.

METAR - Aviation Routine Weather Report
KGLR - Gaylord, Michigan
Updated at 4:53 PM GMT en Marzo 27, 2015 (12:53 PM EDT):
METAR KGLR 271653Z AUTO 02008KT 340V050 10SM CLR M10/M17 A3006 RMK AO2 SLP206 T11001172
TAF - Terminal Area Forecast
KGLR - Gaylord, Michigan
Updated at 4:53 PM GMT en Marzo 27, 2015 (12:53 PM EDT):
No TAF is currently available for this location.
Decoded:
No decoded TAF is available.
PIREP - Pilot Weather Report
KGLR - Gaylord, Michigan
Updated at 4:53 PM GMT en Marzo 27, 2015 (12:53 PM EDT):
No PIREP is currently available for this location.
AIRMET - Airmens Meteorological Information
KGLR - Gaylord, Michigan
Updated at 4:53 PM GMT en Marzo 27, 2015 (12:53 PM EDT):
No AIRMET is currently available for this location.
SIGMET - Significant Meteorological Information
KGLR - Gaylord, Michigan
Updated at 4:53 PM GMT en Marzo 27, 2015 (12:53 PM EDT):
No SIGMET is currently available for this location.
NOTAM - Notice to Airmen
KGLR - Gaylord, Michigan
Updated at 4:53 PM GMT en Marzo 27, 2015 (12:53 PM EDT):
No NOTAM is currently available for this location.
Forecast Area
KGLR - Gaylord, Michigan
Updated at 4:53 PM GMT en Marzo 27, 2015 (12:53 PM EDT):
No NOTAM is currently available for this location.
Aviation Weather Maps